Stephenville, Canada
Current Conditions -  °F | °C
As of 4:00 PM on Tuesday 21 Oct 2014 (Local Time) from CYJT Reporting Station
Overcast Overcast  
Wind Chill:   Ceiling: 2000
Heat Index:   Visibility: 15mi
Dew Point:   Wind: 17mph
Humidity: 66%   Direction: 260°W
Pressure: 30.08"   Gusts: NA
Location:  48.55°N, 58.58°W
Report Text: CYJT 211800Z 26015KT 15SM OVC020 09/03 A3008 RMK SC8 SLP188
Loading
Personal Weather Stations






























Interactive Weather Map
Tropical Storm Tracking
New forecast layout! Learn more

10-Day Weather Forecast

Advertisements
Track Severe Weather on mobile